Terminal Aerodrome Forecast
Issued by NWS

Current Version | Previous Version | Graphics & Text | Print | Product List | Glossary On
Versions: 1 2 3 4 5 6 7 8 9 10 11 12 13 14 15 16 17 18 19 20 21 22 23 24 25 26 27 28 29 30
000
FTUS41 KILN 252300 RRA
TAFLUK
TAF
KLUK 252343Z 2600/2624 20012G18KT P6SM SCT120 OVC200
     FM260200 19008KT P6SM BKN060
     FM261000 16004KT 5SM BR BKN035
     FM261300 20009KT P6SM SCT035
     FM261800 21012G20KT P6SM VCTS BKN040CB BKN110=

USA.gov is the U.S. government's official web portal to all federal, state and local government web resources and services.